createdAt,value
2018-08-03T05:31:03.310Z,7.07
2018-08-03T05:33:31.965Z,7.73
2018-08-03T05:36:00.627Z,7.47
2018-08-03T05:38:29.243Z,7.27
2018-08-03T05:40:57.824Z,7.40
2018-08-03T05:43:26.430Z,6.70
2018-08-03T05:45:55.022Z,7.33
2018-08-03T05:48:23.594Z,7.37
2018-08-03T05:50:52.255Z,7.30
2018-08-03T05:53:20.837Z,7.03
2018-08-03T05:55:49.470Z,7.33
2018-08-03T05:58:18.345Z,7.17
2018-08-03T06:00:46.976Z,7.00
2018-08-03T06:03:15.550Z,7.20
2018-08-03T06:05:44.142Z,6.83
2018-08-03T06:08:12.795Z,6.90
2018-08-03T06:10:41.504Z,7.00
2018-08-03T06:13:10.126Z,7.30
2018-08-03T06:15:38.752Z,7.17
2018-08-03T06:18:07.335Z,6.87
2018-08-03T06:20:35.947Z,6.97
2018-08-03T06:23:04.585Z,7.03
2018-08-03T06:25:33.193Z,7.13
2018-08-03T06:28:01.812Z,7.90
2018-08-03T06:30:30.353Z,7.27
2018-08-03T06:32:58.974Z,6.73
2018-08-03T06:35:27.593Z,7.03
2018-08-03T06:37:56.169Z,6.87
2018-08-03T06:40:24.817Z,7.10
2018-08-03T06:42:53.410Z,7.20
2018-08-03T06:45:22.290Z,8.07
2018-08-03T06:47:50.844Z,7.40
2018-08-03T06:50:19.514Z,7.20
2018-08-03T06:52:48.830Z,6.87
2018-08-03T06:55:17.432Z,7.43
2018-08-03T06:57:46.057Z,6.80
2018-08-03T07:00:16.357Z,6.67
2018-08-03T07:02:45.361Z,6.87
2018-08-03T07:05:14.038Z,6.73
2018-08-03T07:07:42.607Z,6.10
2018-08-03T07:10:11.262Z,6.80
2018-08-03T07:12:40.184Z,6.90
2018-08-03T07:15:09.439Z,6.07
2018-08-03T07:17:38.762Z,6.90
2018-08-03T07:20:07.451Z,6.80
2018-08-03T07:22:36.618Z,7.20
2018-08-03T07:25:06.033Z,6.17
2018-08-03T07:27:34.609Z,5.90
2018-08-03T07:30:03.840Z,6.07
2018-08-03T07:32:32.577Z,6.47
2018-08-03T07:35:01.644Z,5.80
2018-08-03T07:37:30.237Z,6.03
2018-08-03T07:39:59.502Z,6.23
2018-08-03T07:42:28.147Z,5.87
2018-08-03T07:44:56.810Z,6.13
2018-08-03T07:47:25.405Z,6.03
2018-08-03T07:49:53.978Z,6.20
2018-08-03T07:52:22.545Z,6.10
2018-08-03T07:54:51.160Z,6.10
2018-08-03T07:57:19.413Z,5.93
2018-08-03T07:59:47.997Z,5.77
2018-08-03T08:02:16.595Z,6.27
2018-08-03T08:04:45.199Z,6.20
2018-08-03T08:07:13.869Z,5.73
2018-08-03T08:09:43.481Z,6.20
2018-08-03T08:12:12.853Z,6.43
2018-08-03T08:14:42.260Z,5.53
2018-08-03T08:17:10.871Z,5.90
2018-08-03T08:19:39.474Z,6.07
2018-08-03T08:22:08.053Z,6.07
2018-08-03T08:24:37.291Z,5.63
2018-08-03T08:27:05.906Z,6.03
2018-08-03T08:29:34.500Z,5.97
2018-08-03T08:32:03.209Z,5.60
2018-08-03T08:34:31.782Z,5.97
2018-08-03T08:37:00.563Z,6.17
2018-08-03T08:39:29.079Z,5.77
2018-08-03T08:41:57.673Z,6.07
2018-08-03T08:44:26.307Z,5.87
2018-08-03T08:46:54.900Z,5.53
2018-08-03T08:49:23.518Z,5.87
2018-08-03T08:51:52.085Z,6.20
2018-08-03T08:54:20.722Z,5.83
2018-08-03T08:56:49.360Z,5.93
2018-08-03T08:59:17.950Z,6.00
2018-08-03T09:01:46.611Z,6.13
2018-08-03T09:04:15.218Z,6.13
2018-08-03T09:06:43.849Z,5.97
2018-08-03T09:09:12.714Z,6.10
2018-08-03T09:11:41.335Z,5.70
2018-08-03T09:14:10.056Z,6.13
2018-08-03T09:16:38.707Z,5.77
2018-08-03T09:19:07.295Z,6.00
2018-08-03T09:21:36.745Z,6.00
2018-08-03T09:24:05.561Z,5.50
2018-08-03T09:26:34.146Z,5.77
2018-08-03T09:29:02.811Z,5.60
2018-08-03T09:31:31.415Z,5.83
2018-08-03T09:33:59.974Z,6.90
2018-08-03T09:36:28.637Z,6.40
2018-08-03T09:38:57.198Z,8.00
2018-08-03T09:41:25.835Z,6.30
2018-08-03T09:43:54.601Z,5.60
2018-08-03T09:46:23.207Z,5.57
2018-08-03T09:48:51.803Z,5.80
2018-08-03T09:51:20.438Z,5.77
2018-08-03T09:53:49.913Z,5.80
2018-08-03T09:56:18.511Z,5.90
2018-08-03T09:58:47.112Z,5.63
2018-08-03T10:01:15.712Z,5.07
2018-08-03T10:03:44.338Z,4.50
2018-08-03T10:06:13.451Z,5.10
2018-08-03T10:08:42.090Z,5.37
2018-08-03T10:11:11.005Z,5.33
2018-08-03T10:13:39.638Z,5.90
2018-08-03T10:16:08.288Z,5.13
2018-08-03T10:18:36.906Z,5.30
2018-08-03T10:21:05.537Z,4.80
2018-08-03T10:23:34.118Z,5.67
2018-08-03T10:26:02.830Z,5.47
2018-08-03T10:28:31.524Z,5.67
2018-08-03T10:31:00.156Z,5.60
2018-08-03T10:33:30.295Z,5.30
2018-08-03T10:35:58.871Z,4.63
2018-08-03T10:38:27.479Z,4.90
2018-08-03T10:40:56.035Z,5.07
2018-08-03T10:43:24.722Z,4.80
2018-08-03T10:45:53.338Z,4.20
2018-08-03T10:48:21.915Z,4.13
2018-08-03T10:50:50.600Z,4.33
2018-08-03T10:53:19.219Z,4.37
2018-08-03T10:55:47.863Z,4.80
2018-08-03T10:58:16.459Z,4.67
2018-08-03T11:00:45.125Z,4.20
2018-08-03T11:03:14.759Z,3.87
2018-08-03T11:05:43.315Z,4.00
2018-08-03T11:08:11.929Z,3.57
2018-08-03T11:10:40.509Z,3.70
2018-08-03T11:13:09.088Z,3.70
2018-08-03T11:15:37.699Z,3.58
2018-08-03T11:18:06.947Z,3.93
2018-08-03T11:20:35.537Z,4.08
2018-08-03T11:23:04.155Z,3.80
2018-08-03T11:25:32.783Z,3.72
2018-08-03T11:28:02.318Z,3.60
2018-08-03T11:30:30.964Z,3.22
2018-08-03T11:32:59.594Z,3.58
2018-08-03T11:35:28.147Z,3.58
2018-08-03T11:37:56.779Z,3.62
2018-08-03T11:40:25.362Z,3.70
2018-08-03T11:42:53.972Z,3.60
2018-08-03T11:45:22.599Z,3.15
2018-08-03T11:47:51.239Z,3.72
2018-08-03T11:50:19.878Z,3.58
2018-08-03T11:52:48.446Z,3.80
2018-08-03T11:55:17.014Z,3.77
2018-08-03T11:57:45.609Z,3.67
2018-08-03T12:00:14.158Z,3.95
2018-08-03T12:02:42.799Z,3.95
2018-08-03T12:05:11.462Z,3.50
2018-08-03T12:07:40.166Z,3.70
2018-08-03T12:10:08.826Z,3.72
2018-08-03T12:12:37.519Z,4.12
2018-08-03T12:15:06.119Z,3.72
2018-08-03T12:17:34.713Z,3.52
2018-08-03T12:20:03.925Z,4.03
2018-08-03T12:22:32.610Z,3.70
2018-08-03T12:25:01.308Z,3.60
2018-08-03T12:27:29.890Z,3.90
2018-08-03T12:29:58.507Z,3.77
2018-08-03T12:32:27.112Z,3.90
2018-08-03T12:34:56.587Z,3.47
2018-08-03T12:37:25.155Z,3.67
2018-08-03T12:39:53.772Z,4.28
2018-08-03T12:42:22.348Z,3.80
2018-08-03T12:44:51.044Z,3.87
2018-08-03T12:47:19.630Z,3.80
2018-08-03T12:49:48.186Z,3.80
2018-08-03T12:52:16.798Z,3.80
2018-08-03T12:54:45.379Z,4.03
2018-08-03T12:57:14.895Z,4.30
2018-08-03T12:59:43.612Z,4.05
2018-08-03T13:02:12.125Z,4.33
2018-08-03T13:04:40.716Z,4.03
2018-08-03T13:07:09.368Z,4.10
2018-08-03T13:09:38.839Z,3.85
2018-08-03T13:12:07.558Z,4.53
2018-08-03T13:14:36.167Z,3.80
2018-08-03T13:17:04.811Z,4.25
2018-08-03T13:19:33.451Z,3.75
2018-08-03T13:22:02.078Z,4.12
2018-08-03T13:24:31.491Z,4.03
2018-08-03T13:27:00.097Z,3.90
2018-08-03T13:29:28.727Z,4.30
2018-08-03T13:31:57.335Z,4.05
2018-08-03T13:34:25.953Z,4.30
2018-08-03T13:36:55.527Z,3.60
2018-08-03T13:39:24.126Z,4.17
2018-08-03T13:41:52.669Z,4.17
2018-08-03T13:44:21.647Z,3.98
2018-08-03T13:46:50.552Z,3.92
2018-08-03T13:49:19.506Z,4.30
2018-08-03T13:51:48.103Z,4.03
2018-08-03T13:54:17.951Z,4.25
2018-08-03T13:56:46.519Z,3.77
2018-08-03T13:59:15.114Z,3.80
2018-08-03T14:01:54.852Z,3.87
2018-08-03T14:04:23.533Z,3.60
2018-08-03T14:06:52.533Z,3.47
2018-08-03T14:09:21.120Z,3.83
2018-08-03T14:11:49.738Z,3.90
2018-08-03T14:14:18.372Z,3.60
2018-08-03T14:16:47.276Z,3.77
2018-08-03T14:19:15.871Z,3.83
2018-08-03T14:21:44.625Z,4.03
2018-08-03T14:24:13.261Z,4.40
2018-08-03T14:26:42.788Z,3.90
2018-08-03T14:29:12.444Z,3.58
2018-08-03T14:31:41.156Z,3.70
2018-08-03T14:34:10.615Z,3.50
2018-08-03T14:36:39.204Z,3.87
2018-08-03T14:39:09.367Z,3.70
2018-08-03T14:41:39.401Z,4.10
2018-08-03T14:44:08.996Z,3.70
2018-08-03T14:46:38.672Z,4.15
2018-08-03T14:49:07.375Z,3.95
2018-08-03T14:51:36.101Z,3.70
2018-08-03T14:54:04.693Z,3.37
2018-08-03T14:56:33.312Z,3.40
2018-08-03T14:59:02.206Z,4.00
2018-08-03T15:01:30.790Z,3.52
2018-08-03T15:03:59.409Z,3.90
2018-08-03T15:06:27.982Z,3.72
2018-08-03T15:08:58.178Z,3.52
2018-08-03T15:11:26.757Z,3.35
2018-08-03T15:13:55.354Z,3.77
2018-08-03T15:16:24.895Z,3.22
2018-08-03T15:18:53.511Z,3.27
2018-08-03T15:21:22.120Z,3.77
2018-08-03T15:23:54.406Z,3.47
2018-08-03T15:26:22.997Z,3.30
2018-08-03T15:28:51.603Z,3.37
2018-08-03T15:31:20.376Z,3.50
2018-08-03T15:33:49.698Z,3.37
2018-08-03T15:36:18.299Z,3.42
2018-08-03T15:38:47.768Z,3.92
2018-08-03T15:41:16.407Z,3.55
2018-08-03T15:43:45.022Z,3.45
2018-08-03T15:46:14.265Z,3.67
2018-08-03T15:48:43.824Z,3.25
2018-08-03T15:51:12.407Z,3.37
2018-08-03T15:53:42.317Z,3.22
2018-08-03T15:56:11.220Z,3.27
2018-08-03T15:58:39.877Z,3.42
2018-08-03T16:01:09.420Z,3.30
2018-08-03T16:03:39.304Z,3.50
2018-08-03T16:06:07.870Z,3.08
2018-08-03T16:08:39.074Z,3.30
2018-08-03T16:11:07.802Z,3.42
2018-08-03T16:13:36.388Z,3.30
2018-08-03T16:16:06.020Z,2.83
2018-08-03T16:18:34.719Z,3.37
2018-08-03T16:21:04.129Z,3.20
2018-08-03T16:23:32.769Z,3.40
2018-08-03T16:26:01.507Z,3.17
2018-08-03T16:28:30.391Z,3.02
2018-08-03T16:30:59.114Z,3.45
2018-08-03T16:33:27.892Z,2.90
2018-08-03T16:35:56.573Z,3.20
2018-08-03T16:38:25.187Z,2.80
2018-08-03T16:40:53.837Z,2.80
2018-08-03T16:43:22.418Z,3.40
2018-08-03T16:45:51.903Z,2.80
2018-08-03T16:48:20.522Z,3.30
2018-08-03T16:50:49.143Z,3.30
2018-08-03T16:53:17.891Z,3.02
2018-08-03T16:55:46.522Z,2.62
2018-08-03T16:58:15.131Z,2.90
2018-08-03T17:00:43.807Z,3.00
2018-08-03T17:03:13.282Z,2.87
2018-08-03T17:05:42.177Z,3.00
2018-08-03T17:08:11.564Z,2.90
2018-08-03T17:10:40.971Z,2.70
2018-08-03T17:13:09.686Z,3.40
2018-08-03T17:15:38.264Z,5.47
2018-08-03T17:18:06.910Z,3.95
2018-08-03T17:20:35.464Z,11.75
2018-08-03T17:23:04.083Z,11.15
2018-08-03T17:25:33.550Z,12.25
2018-08-03T17:28:02.375Z,72.40
2018-08-03T17:30:33.890Z,12.63
2018-08-03T17:33:02.472Z,59.25
2018-08-03T17:35:32.324Z,33.78
2018-08-03T17:38:01.339Z,8.03
2018-08-03T17:40:29.980Z,21.05
2018-08-03T17:42:59.894Z,31.62
2018-08-03T17:45:29.940Z,34.88
2018-08-03T17:47:58.770Z,30.52
2018-08-03T17:50:29.120Z,26.33
2018-08-03T17:52:58.556Z,32.03
2018-08-03T17:55:28.849Z,28.98
2018-08-03T17:57:57.551Z,14.75
2018-08-03T18:00:28.587Z,37.45
2018-08-03T18:02:57.389Z,45.52
2018-08-03T18:05:27.734Z,35.90
2018-08-03T18:07:57.853Z,47.62
2018-08-03T18:10:27.025Z,31.42
2018-08-03T18:12:56.080Z,13.00
2018-08-03T18:15:24.814Z,14.78
2018-08-03T18:17:54.090Z,6.53
2018-08-03T18:20:24.640Z,4.22
2018-08-03T18:22:54.794Z,13.83
2018-08-03T18:25:25.193Z,3.77
2018-08-03T18:27:55.518Z,3.77
2018-08-03T18:30:26.115Z,3.80
2018-08-03T18:32:55.702Z,3.90
2018-08-03T18:35:26.288Z,21.63
2018-08-03T18:37:56.999Z,6.10
2018-08-03T18:40:28.045Z,12.83
2018-08-03T18:42:58.958Z,5.00
2018-08-03T18:45:30.015Z,3.93
2018-08-03T18:48:02.070Z,3.93
2018-08-03T18:50:32.998Z,3.63
2018-08-03T18:53:05.054Z,6.40
2018-08-03T18:55:36.084Z,3.77
2018-08-03T18:58:07.131Z,3.37
2018-08-03T19:00:38.347Z,3.80
2018-08-03T19:03:09.455Z,4.03
2018-08-03T19:05:40.398Z,3.70
2018-08-03T19:08:11.537Z,3.83
2018-08-03T19:10:42.681Z,3.53
2018-08-03T19:13:15.817Z,3.70
2018-08-03T19:15:46.793Z,3.80
2018-08-03T19:18:18.016Z,4.00
2018-08-03T19:20:49.063Z,3.97
2018-08-03T19:23:20.519Z,4.57
2018-08-03T19:25:51.765Z,4.27
2018-08-03T19:28:24.024Z,4.53
2018-08-03T19:30:55.053Z,4.73
2018-08-03T19:33:26.138Z,5.97
2018-08-03T19:35:57.217Z,5.57
2018-08-03T19:38:28.433Z,6.57
2018-08-03T19:40:59.416Z,5.60
2018-08-03T19:43:30.717Z,4.73
2018-08-03T19:46:01.736Z,4.40
2018-08-03T19:48:33.647Z,5.27
2018-08-03T19:51:04.701Z,4.53
2018-08-03T19:53:35.879Z,4.03
2018-08-03T19:56:06.982Z,3.80
2018-08-03T19:58:38.266Z,3.63
2018-08-03T20:01:09.313Z,3.50
2018-08-03T20:03:41.278Z,3.90
2018-08-03T20:06:13.634Z,3.70
2018-08-03T20:08:45.653Z,3.70
2018-08-03T20:11:16.639Z,3.77
2018-08-03T20:13:49.895Z,4.43
2018-08-03T20:16:20.879Z,4.20
2018-08-03T20:18:54.100Z,4.10
2018-08-03T20:21:25.232Z,4.00
2018-08-03T20:23:56.536Z,4.50
2018-08-03T20:26:27.738Z,3.97
2018-08-03T20:29:00.158Z,4.17
2018-08-03T20:31:31.351Z,4.40
2018-08-03T20:34:03.495Z,4.20
2018-08-03T20:36:35.208Z,4.10
2018-08-03T20:39:08.515Z,4.23
2018-08-03T20:41:39.960Z,4.03
2018-08-03T20:44:11.378Z,4.40
2018-08-03T20:46:42.830Z,4.57
2018-08-03T20:49:14.092Z,4.60
2018-08-03T20:51:45.254Z,4.30
2018-08-03T20:54:16.297Z,4.07
2018-08-03T20:56:47.463Z,3.80
2018-08-03T20:59:18.760Z,4.23
2018-08-03T21:01:49.898Z,3.50
2018-08-03T21:04:21.064Z,3.93
2018-08-03T21:06:52.035Z,3.77
2018-08-03T21:09:23.370Z,3.70
2018-08-03T21:11:54.447Z,4.40
2018-08-03T21:14:25.922Z,4.10
2018-08-03T21:16:56.947Z,3.93
2018-08-03T21:19:28.922Z,3.83
2018-08-03T21:22:06.250Z,3.90
2018-08-03T21:24:37.490Z,3.73
2018-08-03T21:27:08.931Z,3.43
2018-08-03T21:29:40.720Z,4.00
2018-08-03T21:32:12.719Z,3.90
2018-08-03T21:34:44.559Z,3.90
2018-08-03T21:37:15.713Z,3.50
2018-08-03T21:39:47.839Z,3.63
2018-08-03T21:42:19.052Z,3.70
2018-08-03T21:44:50.343Z,3.87
2018-08-03T21:47:21.375Z,4.07
2018-08-03T21:49:52.552Z,3.67
2018-08-03T21:52:24.290Z,4.00
2018-08-03T21:54:54.905Z,3.67
2018-08-03T21:57:25.829Z,3.60
2018-08-03T21:59:56.479Z,3.80
2018-08-03T22:02:27.489Z,3.63
2018-08-03T22:04:58.394Z,4.00
2018-08-03T22:07:27.673Z,3.63
2018-08-03T22:09:56.618Z,3.73
2018-08-03T22:12:25.529Z,3.87
2018-08-03T22:14:55.132Z,3.40
2018-08-03T22:17:24.793Z,3.47
2018-08-03T22:19:53.557Z,4.00
2018-08-03T22:22:22.710Z,3.67
2018-08-03T22:24:51.772Z,4.10
2018-08-03T22:27:20.622Z,3.87
2018-08-03T22:29:49.283Z,4.00
2018-08-03T22:32:18.188Z,3.73
2018-08-03T22:34:47.152Z,3.50
2018-08-03T22:37:16.111Z,4.30
2018-08-03T22:39:47.871Z,3.80
2018-08-03T22:42:16.820Z,4.37
2018-08-03T22:44:48.068Z,3.93
2018-08-03T22:47:16.856Z,3.97
2018-08-03T22:49:45.478Z,3.60
2018-08-03T22:52:15.185Z,3.80
2018-08-03T22:54:44.143Z,4.03
2018-08-03T22:57:12.733Z,4.00
2018-08-03T22:59:41.414Z,3.97
2018-08-03T23:02:10.145Z,4.20
2018-08-03T23:04:39.615Z,3.97
2018-08-03T23:07:08.591Z,3.90
2018-08-03T23:09:37.450Z,4.00
2018-08-03T23:12:06.275Z,3.97
2018-08-03T23:14:34.880Z,3.97
2018-08-03T23:17:03.688Z,4.27
2018-08-03T23:19:32.802Z,3.90
2018-08-03T23:22:01.426Z,4.00
2018-08-03T23:24:31.248Z,4.07
2018-08-03T23:26:59.846Z,3.70
2018-08-03T23:29:28.814Z,4.17
2018-08-03T23:31:57.455Z,4.00
2018-08-03T23:34:27.017Z,4.07
2018-08-03T23:36:55.925Z,4.43
2018-08-03T23:39:24.491Z,4.77
2018-08-03T23:41:53.337Z,4.67
2018-08-03T23:44:22.202Z,4.30
2018-08-03T23:46:51.615Z,4.43
2018-08-03T23:49:20.277Z,4.67
2018-08-03T23:51:49.511Z,4.30
2018-08-03T23:54:18.113Z,4.57
2018-08-03T23:56:46.692Z,4.90
2018-08-03T23:59:15.326Z,4.70
